Clyde, Michigan
Current Conditions -  °F | °C
As of 11:16 AM on Thursday 23 Oct 2014 (Local Time) from KPHN Reporting Station
Scattered Clouds Scattered Clouds  
Wind Chill:   Ceiling: Unl
Heat Index:   Visibility: 10mi
Dew Point:   Wind: 5mph
Humidity: 82%   Direction: 330°NNW
Pressure: 30.24"   Gusts: NA
Location:  43.0355°N, 82.5759°W
Report Text: KPHN 231516Z AUTO 33004KT 10SM SCT012 09/06 A3024 RMK AO2
Loading
Personal Weather Stations






























Interactive Weather Map
Tropical Storm Tracking
New forecast layout! Learn more

10-Day Weather Forecast

Advertisements
Track Severe Weather on mobile